Time;durP1;ratioP1;P1;durP2;ratioP2;P2;SDS_P1;SDS_P2;PMS_P1;PMS_P2;Temp;Humidity;BMP_temperature;BMP_pressure;BME280_temperature;BME280_humidity;BME280_pressure;Samples;Min_cycle;Max_cycle;Signal;HPM_P1;HPM_P2
2022/06/06 05:00:16;;;;;;;3.60;3.30;;;17.40;97.20;;;;;;1726719;28;20220;-72
2022/06/06 05:01:08;;;;;;;3.70;3.40;;;17.40;97.20;;;;;;1726585;28;20585;-72
2022/06/06 05:02:02;;;;;;;4.00;3.70;;;17.40;97.20;;;;;;1726621;28;20204;-72
2022/06/06 05:02:53;;;;;;;3.70;3.40;;;17.40;97.20;;;;;;1726622;28;20205;-72
2022/06/06 05:03:45;;;;;;;4.00;3.70;;;17.40;97.20;;;;;;1726561;28;20723;-72
2022/06/06 05:04:36;;;;;;;5.10;4.40;;;17.50;97.20;;;;;;1726451;28;20207;-72
2022/06/06 05:05:40;;;;;;;4.50;4.10;;;17.50;97.20;;;;;;1726498;28;20279;-72
2022/06/06 05:07:10;;;;;;;5.05;3.92;;;17.50;97.20;;;;;;1732209;28;20203;-72
2022/06/06 05:08:13;;;;;;;4.18;3.85;;;17.50;97.20;;;;;;1711743;28;20230;-72
2022/06/06 05:09:38;;;;;;;4.63;4.22;;;17.50;97.20;;;;;;1733323;28;20206;-72
2022/06/06 05:10:51;;;;;;;6.20;3.70;;;17.50;97.20;;;;;;1733339;28;20582;-72
2022/06/06 05:12:00;;;;;;;4.28;3.75;;;17.50;97.20;;;;;;1733380;28;20192;-72
2022/06/06 05:13:25;;;;;;;4.38;4.07;;;17.50;97.20;;;;;;1733433;28;20200;-72
2022/06/06 05:14:30;;;;;;;4.55;4.15;;;17.50;97.20;;;;;;1733389;28;20207;-72
2022/06/06 05:15:38;;;;;;;4.28;3.97;;;17.50;97.20;;;;;;1733301;28;20271;-72
2022/06/06 05:16:46;;;;;;;3.70;3.40;;;17.40;97.20;;;;;;1733248;28;20236;-72
2022/06/06 05:17:53;;;;;;;4.13;3.72;;;17.40;97.20;;;;;;1733300;28;20192;-71
2022/06/06 05:19:10;;;;;;;6.07;4.20;;;17.50;97.20;;;;;;1733290;28;20294;-71
2022/06/06 05:20:11;;;;;;;4.13;3.70;;;17.50;97.20;;;;;;1733305;28;20200;-71
2022/06/06 05:21:19;;;;;;;4.20;3.80;;;17.50;97.20;;;;;;1733313;28;20261;-71
2022/06/06 05:22:23;;;;;;;3.60;3.30;;;17.50;97.20;;;;;;1733289;28;20671;-71
2022/06/06 05:23:44;;;;;;;4.28;3.88;;;17.50;97.20;;;;;;1726380;28;20209;-71
2022/06/06 05:25:01;;;;;;;4.35;3.97;;;17.50;97.20;;;;;;1726383;28;20201;-71
2022/06/06 05:26:06;;;;;;;4.25;3.95;;;17.60;97.20;;;;;;1726439;28;20570;-71
2022/06/06 05:27:26;;;;;;;4.30;3.95;;;17.60;97.20;;;;;;1726296;28;20552;-71
2022/06/06 05:28:46;;;;;;;8.15;3.75;;;17.60;97.20;;;;;;1726358;28;20258;-71
2022/06/06 05:30:03;;;;;;;4.03;3.72;;;17.60;97.20;;;;;;1726504;28;20203;-71
2022/06/06 05:31:00;;;;;;;4.50;4.00;;;17.60;97.20;;;;;;1726496;28;20313;-71
2022/06/06 05:32:13;;;;;;;3.60;3.40;;;17.60;97.20;;;;;;1726457;28;20204;-71
2022/06/06 05:33:11;;;;;;;4.50;4.10;;;17.60;97.20;;;;;;1726529;28;20200;-71
2022/06/06 05:34:11;;;;;;;6.15;3.80;;;17.70;97.20;;;;;;1726348;28;20215;-70
2022/06/06 05:35:09;;;;;;;4.75;3.72;;;17.70;97.20;;;;;;1725806;28;20221;-71
2022/06/06 05:36:17;;;;;;;4.03;3.72;;;17.70;97.20;;;;;;1726443;28;20239;-71
2022/06/06 05:37:20;;;;;;;4.60;4.20;;;17.70;97.20;;;;;;1726168;28;20201;-71
2022/06/06 05:38:30;;;;;;;4.00;3.53;;;17.70;97.20;;;;;;1726384;28;20204;-71
2022/06/06 05:39:38;;;;;;;4.13;3.80;;;17.80;97.20;;;;;;1726077;28;20330;-71
2022/06/06 05:40:37;;;;;;;7.05;3.88;;;17.80;97.20;;;;;;1726382;28;20204;-71
2022/06/06 05:41:41;;;;;;;4.13;3.83;;;17.80;97.20;;;;;;1726394;28;20209;-71
2022/06/06 05:42:45;;;;;;;4.97;4.20;;;17.80;97.20;;;;;;1726464;28;20200;-71
2022/06/06 05:43:46;;;;;;;4.75;3.55;;;17.90;97.20;;;;;;1726424;28;20251;-71
2022/06/06 05:44:45;;;;;;;4.75;4.20;;;17.90;97.20;;;;;;1726397;28;20228;-71
2022/06/06 05:45:43;;;;;;;4.55;4.15;;;17.90;97.20;;;;;;1726425;28;20235;-71
2022/06/06 05:46:46;;;;;;;4.40;3.70;;;17.90;97.20;;;;;;1726034;28;20205;-71
2022/06/06 05:47:46;;;;;;;5.93;4.55;;;18.00;97.20;;;;;;1726404;28;20201;-71
2022/06/06 05:49:03;;;;;;;4.22;3.83;;;18.00;97.20;;;;;;1726382;28;20417;-71
2022/06/06 05:50:14;;;;;;;3.90;3.55;;;18.00;97.20;;;;;;1726228;28;20235;-71
2022/06/06 05:51:21;;;;;;;5.43;3.97;;;18.00;97.20;;;;;;1726360;28;20212;-70
2022/06/06 05:52:52;;;;;;;4.35;4.05;;;18.00;97.20;;;;;;1726351;28;20209;-70
2022/06/06 05:54:05;;;;;;;4.88;4.47;;;18.00;97.20;;;;;;1726398;28;20208;-71
2022/06/06 05:55:09;;;;;;;4.45;3.97;;;18.00;97.20;;;;;;1726363;28;20247;-71
2022/06/06 05:56:15;;;;;;;4.57;4.15;;;18.00;97.20;;;;;;1726022;28;20830;-71
2022/06/06 05:57:28;;;;;;;4.05;3.65;;;18.00;97.20;;;;;;1726050;28;20204;-71
2022/06/06 05:58:40;;;;;;;4.97;4.50;;;18.10;97.20;;;;;;1726363;28;20555;-71
2022/06/06 05:59:49;;;;;;;5.22;3.90;;;18.10;97.20;;;;;;1726381;28;20201;-71
2022/06/06 06:00:49;;;;;;;4.20;3.90;;;18.10;97.20;;;;;;1726401;28;20215;-71
2022/06/06 06:01:59;;;;;;;4.05;3.75;;;18.10;97.20;;;;;;1726336;28;20318;-70
2022/06/06 06:03:16;;;;;;;4.50;4.10;;;18.20;97.20;;;;;;1726329;28;20204;-70
2022/06/06 06:04:34;;;;;;;4.70;4.30;;;18.20;97.20;;;;;;1726371;28;20224;-71
2022/06/06 06:05:35;;;;;;;4.63;4.20;;;18.20;97.20;;;;;;1726280;28;20246;-71
2022/06/06 06:06:31;;;;;;;6.47;4.22;;;18.30;97.20;;;;;;1726212;28;20280;-70
2022/06/06 06:07:28;;;;;;;4.57;4.13;;;18.30;97.20;;;;;;1726252;28;20213;-70
2022/06/06 06:08:33;;;;;;;4.22;3.92;;;18.40;97.20;;;;;;1726200;28;20600;-71
2022/06/06 06:09:39;;;;;;;6.53;4.05;;;18.40;97.20;;;;;;1726288;28;20552;-71
2022/06/06 06:10:37;;;;;;;3.88;3.58;;;18.40;97.20;;;;;;1726322;28;20252;-71
2022/06/06 06:11:42;;;;;;;4.47;4.07;;;18.50;97.20;;;;;;1726280;28;20208;-71
2022/06/06 06:12:59;;;;;;;4.20;3.92;;;18.50;97.20;;;;;;1726072;28;20208;-71
2022/06/06 06:14:05;;;;;;;4.82;4.15;;;18.50;97.20;;;;;;1726220;28;20197;-71
2022/06/06 06:15:07;;;;;;;4.68;4.25;;;18.50;97.20;;;;;;1726099;28;20711;-70
2022/06/06 06:16:03;;;;;;;4.60;3.88;;;18.50;97.20;;;;;;1726264;28;20596;-71
2022/06/06 06:16:59;;;;;;;7.10;4.78;;;18.50;97.20;;;;;;1726021;28;20227;-71
2022/06/06 06:17:54;;;;;;;5.65;4.15;;;18.50;97.20;;;;;;1726157;28;20197;-71
2022/06/06 06:18:50;;;;;;;4.97;4.57;;;18.50;97.20;;;;;;1726217;28;20826;-71
2022/06/06 06:19:47;;;;;;;5.35;4.80;;;18.60;97.20;;;;;;1726225;28;20254;-71
2022/06/06 06:20:44;;;;;;;4.07;3.70;;;18.60;97.20;;;;;;1726339;28;20672;-71
2022/06/06 06:21:41;;;;;;;4.72;4.28;;;18.60;97.20;;;;;;1726178;28;20207;-71
2022/06/06 06:22:36;;;;;;;5.93;4.60;;;18.60;97.20;;;;;;1726247;28;20232;-71
2022/06/06 06:23:32;;;;;;;4.05;3.75;;;18.60;97.20;;;;;;1726245;28;20280;-71
2022/06/06 06:24:26;;;;;;;5.05;4.55;;;18.60;97.20;;;;;;1726228;28;20575;-71
2022/06/06 06:25:20;;;;;;;5.40;4.53;;;18.60;97.20;;;;;;1726259;28;20207;-71
2022/06/06 06:26:11;;;;;;;4.43;4.03;;;18.60;97.20;;;;;;1726122;28;20719;-71
2022/06/06 06:27:05;;;;;;;8.40;4.05;;;18.60;97.20;;;;;;1725917;28;20291;-71
2022/06/06 06:28:04;;;;;;;4.47;4.07;;;18.70;97.20;;;;;;1726090;28;20212;-71
2022/06/06 06:28:59;;;;;;;5.40;4.45;;;18.70;97.20;;;;;;1725857;28;20197;-71
2022/06/06 06:29:50;;;;;;;5.68;4.20;;;18.70;97.20;;;;;;1726238;28;20218;-71
2022/06/06 06:30:54;;;;;;;5.75;4.53;;;18.70;97.20;;;;;;1726233;28;20216;-71
2022/06/06 06:32:08;;;;;;;4.25;3.95;;;18.70;97.20;;;;;;1726245;28;20196;-71
2022/06/06 06:33:22;;;;;;;4.85;4.45;;;18.70;97.20;;;;;;1726362;28;20222;-71
2022/06/06 06:34:29;;;;;;;5.68;4.40;;;18.80;97.20;;;;;;1726148;28;20212;-71
2022/06/06 06:35:26;;;;;;;4.18;3.70;;;18.80;97.20;;;;;;1726082;28;20209;-71
2022/06/06 06:36:31;;;;;;;4.75;4.15;;;18.80;97.20;;;;;;1726069;28;20204;-71
2022/06/06 06:37:47;;;;;;;4.70;4.10;;;18.80;97.20;;;;;;1725845;28;20208;-71
2022/06/06 06:38:55;;;;;;;4.60;4.30;;;18.80;97.20;;;;;;1726210;28;20656;-71
2022/06/06 06:40:06;;;;;;;4.15;3.75;;;18.80;97.20;;;;;;1726098;28;20223;-71
2022/06/06 06:41:02;;;;;;;4.30;4.00;;;18.80;97.20;;;;;;1726217;28;20550;-71
2022/06/06 06:42:09;;;;;;;5.25;4.47;;;18.80;97.20;;;;;;1726240;28;20686;-71
2022/06/06 06:43:08;;;;;;;4.88;4.18;;;18.80;97.20;;;;;;1726277;28;20201;-71
2022/06/06 06:44:06;;;;;;;4.47;4.07;;;18.80;97.20;;;;;;1726227;28;20563;-71
2022/06/06 06:45:02;;;;;;;4.45;4.05;;;18.80;97.20;;;;;;1725879;28;20231;-71
2022/06/06 06:46:00;;;;;;;4.90;4.50;;;18.90;97.20;;;;;;1726050;28;20633;-71
2022/06/06 06:46:56;;;;;;;5.72;4.10;;;18.90;97.20;;;;;;1726015;28;20572;-72
2022/06/06 06:47:53;;;;;;;6.05;4.50;;;18.90;97.20;;;;;;1727217;28;20200;-72
2022/06/06 06:48:46;;;;;;;4.65;4.25;;;18.90;97.20;;;;;;1727158;28;20285;-72
2022/06/06 06:49:43;;;;;;;4.40;4.07;;;18.90;97.20;;;;;;1727285;28;20196;-72
2022/06/06 06:50:40;;;;;;;4.30;4.00;;;19.00;97.20;;;;;;1727376;28;20212;-71
2022/06/06 06:51:41;;;;;;;4.30;3.97;;;19.00;97.20;;;;;;1727239;28;20203;-71
2022/06/06 06:52:45;;;;;;;4.30;3.90;;;19.00;97.20;;;;;;1727248;28;20212;-71
2022/06/06 06:53:53;;;;;;;4.55;4.15;;;19.00;97.20;;;;;;1727262;28;20205;-71
2022/06/06 06:55:04;;;;;;;4.40;4.10;;;19.00;97.20;;;;;;1727204;28;20236;-71
2022/06/06 06:56:01;;;;;;;4.35;4.03;;;19.00;97.20;;;;;;1727154;28;20201;-71
2022/06/06 06:57:07;;;;;;;8.23;4.32;;;19.00;97.20;;;;;;1727013;28;20476;-71
2022/06/06 06:58:34;;;;;;;7.07;4.75;;;19.00;97.20;;;;;;1727168;28;20201;-71
2022/06/06 06:59:33;;;;;;;6.25;4.57;;;19.00;97.20;;;;;;1727092;28;20215;-72
2022/06/06 07:00:25;;;;;;;4.65;4.25;;;19.10;97.20;;;;;;1726969;28;20620;-71
2022/06/06 07:01:22;;;;;;;4.93;4.53;;;19.10;97.20;;;;;;1727197;28;20201;-71
2022/06/06 07:09:16;;;;;;;4.65;4.20;;;19.10;97.20;;;;;;1727046;28;20258;-71
2022/06/06 07:10:16;;;;;;;5.07;4.63;;;19.20;97.20;;;;;;1727088;28;20580;-71
2022/06/06 07:11:29;;;;;;;4.50;4.10;;;19.20;97.20;;;;;;1727121;28;20201;-71
2022/06/06 07:12:37;;;;;;;4.65;4.35;;;19.20;97.20;;;;;;1727153;28;20312;-72
2022/06/06 07:13:41;;;;;;;4.28;3.97;;;19.20;97.20;;;;;;1727125;28;20212;-71
2022/06/06 07:14:50;;;;;;;4.78;4.40;;;19.20;97.20;;;;;;1726640;28;20228;-71
2022/06/06 07:15:48;;;;;;;5.68;4.28;;;19.20;97.20;;;;;;1727169;28;20208;-71
2022/06/06 07:16:41;;;;;;;5.97;4.40;;;19.20;97.20;;;;;;1726844;28;20205;-71
2022/06/06 07:17:39;;;;;;;4.43;4.13;;;19.20;97.20;;;;;;1727043;28;20201;-72
2022/06/06 07:18:33;;;;;;;4.20;3.70;;;19.20;97.20;;;;;;1727030;28;20630;-71
2022/06/06 07:19:32;;;;;;;4.82;4.43;;;19.20;97.20;;;;;;1726760;28;20698;-72
2022/06/06 07:20:23;;;;;;;4.53;4.13;;;19.20;97.20;;;;;;1727044;28;20205;-72
2022/06/06 07:21:17;;;;;;;4.90;3.95;;;19.20;97.20;;;;;;1727050;28;20204;-72
2022/06/06 07:22:10;;;;;;;4.22;3.92;;;19.20;97.20;;;;;;1727036;28;20288;-71
2022/06/06 07:23:03;;;;;;;5.00;4.18;;;19.30;97.20;;;;;;1727100;28;20212;-71
2022/06/06 07:23:59;;;;;;;4.32;3.92;;;19.30;97.20;;;;;;1727014;28;20196;-72
2022/06/06 07:24:57;;;;;;;5.63;4.10;;;19.30;97.20;;;;;;1727147;28;20221;-72
2022/06/06 07:25:51;;;;;;;4.68;4.38;;;19.40;97.20;;;;;;1727020;28;20652;-72
2022/06/06 07:26:43;;;;;;;4.53;4.13;;;19.40;97.20;;;;;;1726749;28;20201;-72
2022/06/06 07:27:35;;;;;;;4.65;4.25;;;19.40;97.20;;;;;;1726962;28;20259;-72
2022/06/06 07:28:25;;;;;;;5.32;4.80;;;19.40;97.20;;;;;;1726807;28;20209;-72
2022/06/06 07:29:21;;;;;;;5.20;4.60;;;19.50;97.20;;;;;;1727058;28;20300;-72
2022/06/06 07:30:12;;;;;;;4.60;4.20;;;19.50;97.20;;;;;;1727126;28;20201;-72
2022/06/06 07:31:20;;;;;;;5.40;4.70;;;19.50;97.20;;;;;;1726658;28;20235;-72
2022/06/06 07:32:34;;;;;;;4.50;4.10;;;19.50;97.20;;;;;;1727043;28;20217;-72
2022/06/06 07:33:51;;;;;;;4.75;4.35;;;19.50;97.20;;;;;;1727019;28;20201;-72
2022/06/06 07:34:58;;;;;;;4.90;4.60;;;19.50;97.20;;;;;;1726848;28;20224;-71
2022/06/06 07:36:01;;;;;;;4.40;4.00;;;19.60;97.20;;;;;;1726912;28;20197;-72
2022/06/06 07:37:04;;;;;;;4.72;4.32;;;19.60;97.20;;;;;;1726567;28;20404;-72
2022/06/06 07:38:09;;;;;;;5.53;4.70;;;19.60;97.20;;;;;;1726944;28;20284;-72
2022/06/06 07:39:16;;;;;;;5.88;4.32;;;19.60;97.20;;;;;;1727055;28;20201;-72
2022/06/06 07:40:17;;;;;;;4.95;4.53;;;19.60;97.20;;;;;;1727007;28;20291;-72
2022/06/06 07:41:25;;;;;;;4.72;4.30;;;19.60;97.20;;;;;;1726938;28;20205;-72
2022/06/06 07:42:38;;;;;;;4.93;4.53;;;19.60;97.20;;;;;;1727015;28;20212;-72
2022/06/06 07:43:50;;;;;;;4.72;4.30;;;19.70;97.20;;;;;;1726982;28;20200;-72
2022/06/06 07:45:02;;;;;;;6.00;4.40;;;19.70;97.20;;;;;;1726929;28;20229;-72
2022/06/06 07:46:01;;;;;;;4.47;4.18;;;19.70;97.20;;;;;;1726962;28;20201;-72
2022/06/06 07:47:01;;;;;;;5.75;4.60;;;19.70;97.20;;;;;;1726607;28;20212;-72
2022/06/06 07:48:11;;;;;;;4.15;3.85;;;19.80;97.20;;;;;;1726382;28;20200;-72
2022/06/06 07:49:05;;;;;;;4.30;3.90;;;19.80;97.20;;;;;;1726917;28;20228;-72
2022/06/06 07:50:01;;;;;;;6.28;5.30;;;19.80;97.20;;;;;;1726899;28;20196;-72
2022/06/06 07:51:06;;;;;;;5.68;4.65;;;19.80;97.20;;;;;;1726696;28;20280;-72
2022/06/06 07:52:03;;;;;;;4.53;4.07;;;19.90;97.20;;;;;;1726933;28;20197;-72
2022/06/06 07:53:04;;;;;;;4.28;3.83;;;19.90;97.20;;;;;;1727021;28;20192;-72
2022/06/06 07:54:02;;;;;;;4.60;4.20;;;19.90;97.20;;;;;;1726784;28;20205;-72
2022/06/06 07:55:01;;;;;;;5.55;5.05;;;20.00;97.20;;;;;;1726759;28;20216;-72
2022/06/06 07:56:00;;;;;;;5.38;4.85;;;20.00;97.20;;;;;;1726772;28;20551;-72
2022/06/06 07:57:00;;;;;;;4.55;4.20;;;20.00;97.20;;;;;;1726557;28;20192;-72
2022/06/06 07:58:01;;;;;;;5.60;4.28;;;20.00;97.20;;;;;;1726307;28;20197;-72
2022/06/06 07:58:59;;;;;;;4.78;4.38;;;20.10;97.20;;;;;;1726858;28;20193;-72
2022/06/06 08:00:00;;;;;;;5.10;4.60;;;20.10;97.20;;;;;;1726839;28;20204;-72
2022/06/06 08:01:13;;;;;;;5.75;3.92;;;20.10;97.20;;;;;;1726826;28;20204;-72
2022/06/06 08:02:21;;;;;;;4.57;4.05;;;20.10;97.20;;;;;;1726770;28;20201;-72
2022/06/06 08:03:19;;;;;;;4.65;4.25;;;20.10;97.20;;;;;;1726805;28;20691;-71
2022/06/06 08:04:24;;;;;;;4.60;4.20;;;20.10;97.20;;;;;;1726477;28;20201;-71
2022/06/06 08:05:56;;;;;;;4.13;3.72;;;20.20;97.20;;;;;;1726894;28;20203;-77
2022/06/06 08:07:02;;;;;;;3.95;3.65;;;20.20;97.20;;;;;;1705599;29;20199;-72
2022/06/06 08:08:08;;;;;;;4.00;3.60;;;20.20;97.20;;;;;;1705799;29;20579;-71
2022/06/06 08:09:33;;;;;;;4.28;3.92;;;20.30;97.20;;;;;;1710600;28;20254;-71
2022/06/06 08:10:32;;;;;;;4.22;3.92;;;20.30;97.20;;;;;;1726811;28;20216;-72
2022/06/06 08:11:34;;;;;;;4.25;3.85;;;20.30;97.20;;;;;;1726784;28;20672;-72
2022/06/06 08:12:44;;;;;;;4.60;4.15;;;20.30;97.20;;;;;;1726674;28;20610;-71
2022/06/06 08:13:44;;;;;;;4.07;3.78;;;20.30;97.20;;;;;;1726715;28;20209;-71
2022/06/06 08:14:49;;;;;;;4.57;4.10;;;20.30;97.20;;;;;;1726509;28;20205;-72
2022/06/06 08:16:00;;;;;;;5.05;3.80;;;20.30;97.20;;;;;;1726819;28;20208;-72
2022/06/06 08:17:00;;;;;;;4.32;3.92;;;20.30;97.20;;;;;;1726495;28;20197;-71
2022/06/06 08:18:15;;;;;;;3.92;3.58;;;20.40;97.20;;;;;;1726582;28;20211;-78
2022/06/06 08:19:39;;;;;;;4.32;4.03;;;20.40;97.20;;;;;;1726698;28;20627;-72
2022/06/06 08:20:39;;;;;;;4.88;3.90;;;20.40;97.20;;;;;;1715188;28;20261;-72
2022/06/06 08:21:36;;;;;;;4.68;4.28;;;20.40;97.20;;;;;;1726669;28;20282;-72
2022/06/06 08:22:29;;;;;;;4.40;4.10;;;20.50;97.20;;;;;;1725832;28;20598;-72
2022/06/06 08:23:22;;;;;;;3.80;3.50;;;20.50;97.20;;;;;;1726430;28;20200;-72
2022/06/06 08:24:19;;;;;;;4.72;4.28;;;20.50;97.20;;;;;;1726745;28;20283;-72
2022/06/06 08:25:13;;;;;;;5.70;3.92;;;20.50;97.20;;;;;;1726668;28;20224;-72
2022/06/06 08:26:05;;;;;;;4.20;3.90;;;20.60;97.20;;;;;;1726544;28;20205;-72
2022/06/06 08:26:59;;;;;;;3.95;3.65;;;20.60;97.20;;;;;;1726399;28;20258;-72
2022/06/06 08:27:52;;;;;;;3.63;3.33;;;20.60;97.20;;;;;;1726656;28;20196;-72
2022/06/06 08:28:45;;;;;;;4.18;3.70;;;20.70;97.20;;;;;;1726582;28;20292;-72
2022/06/06 08:29:39;;;;;;;4.57;3.50;;;20.70;97.20;;;;;;1726681;28;20208;-72
2022/06/06 08:30:32;;;;;;;4.30;3.80;;;20.70;97.20;;;;;;1726686;28;20672;-72
2022/06/06 08:31:24;;;;;;;3.58;3.30;;;20.80;97.20;;;;;;1726656;28;20544;-72
2022/06/06 08:32:15;;;;;;;4.10;3.80;;;20.80;97.20;;;;;;1726619;28;20207;-72
2022/06/06 08:33:07;;;;;;;3.47;3.20;;;20.80;97.20;;;;;;1726576;28;20245;-72
2022/06/06 08:33:58;;;;;;;3.95;3.55;;;20.80;97.20;;;;;;1726646;28;20212;-72
2022/06/06 08:34:50;;;;;;;4.17;3.67;;;20.80;97.20;;;;;;1726584;28;20220;-72
2022/06/06 08:35:54;;;;;;;4.15;3.75;;;20.90;97.20;;;;;;1726671;28;20550;-72
2022/06/06 08:37:16;;;;;;;3.80;3.50;;;20.90;97.20;;;;;;1726086;28;20208;-72
2022/06/06 08:38:30;;;;;;;3.67;3.38;;;21.00;97.20;;;;;;1726565;28;20233;-73
2022/06/06 08:39:29;;;;;;;3.67;3.28;;;21.00;97.20;;;;;;1726562;28;20204;-73
2022/06/06 08:40:58;;;;;;;2.95;2.65;;;21.10;97.20;;;;;;1726544;28;20201;-72
2022/06/06 08:42:24;;;;;;;3.60;3.33;;;21.10;97.20;;;;;;1726506;28;20660;-73
2022/06/06 08:43:22;;;;;;;4.38;3.40;;;21.10;97.20;;;;;;1726719;28;20211;-72
2022/06/06 08:44:28;;;;;;;5.13;3.25;;;21.20;97.20;;;;;;1726688;28;20235;-72
2022/06/06 08:45:42;;;;;;;3.30;3.10;;;21.20;97.20;;;;;;1726656;28;20259;-72
2022/06/06 08:47:00;;;;;;;3.67;3.38;;;21.20;97.20;;;;;;1726384;28;20210;-72
2022/06/06 08:48:02;;;;;;;3.30;3.00;;;21.30;97.20;;;;;;1726515;28;20561;-72
2022/06/06 08:50:44;;;;;;;3.95;3.65;;;21.30;97.20;;;;;;1726627;28;20199;-72
2022/06/06 08:50:58;;;;;;;3.60;3.30;;;21.30;97.20;;;;;;1726575;28;20686;-73
2022/06/06 08:51:51;;;;;;;3.72;3.15;;;21.40;97.20;;;;;;1723890;28;20203;-73
2022/06/06 08:53:20;;;;;;;4.30;2.92;;;21.40;97.20;;;;;;1726571;28;20529;-73
2022/06/06 08:54:37;;;;;;;3.55;2.90;;;21.40;97.20;;;;;;1717781;28;20215;-73
2022/06/06 08:55:50;;;;;;;2.75;2.53;;;21.50;97.20;;;;;;1726928;28;20211;-73
2022/06/06 08:57:03;;;;;;;2.95;2.30;;;21.50;97.20;;;;;;1726648;28;20663;-73
2022/06/06 08:58:19;;;;;;;5.50;2.90;;;21.60;97.20;;;;;;1726503;28;20205;-72
2022/06/06 08:59:39;;;;;;;3.70;2.67;;;21.60;97.20;;;;;;1726656;28;20204;-73
2022/06/06 09:00:44;;;;;;;3.83;3.45;;;21.70;97.20;;;;;;1726623;28;20200;-72
2022/06/06 09:01:54;;;;;;;3.25;2.20;;;21.70;97.20;;;;;;1726612;28;20839;-72
2022/06/06 09:03:27;;;;;;;2.33;2.22;;;21.80;97.20;;;;;;1726495;28;20197;-72
2022/06/06 09:04:46;;;;;;;4.55;2.20;;;21.80;97.20;;;;;;1712175;28;20693;-73
2022/06/06 09:06:12;;;;;;;3.40;2.53;;;21.90;97.20;;;;;;1719217;28;20188;-73
2022/06/06 09:07:41;;;;;;;3.60;2.38;;;21.90;97.20;;;;;;1726335;28;20208;-74
2022/06/06 09:09:14;;;;;;;4.53;2.30;;;22.00;97.20;;;;;;1726546;28;20660;-74
2022/06/06 09:10:51;;;;;;;3.28;2.65;;;22.00;97.20;;;;;;1725985;28;20208;-74
2022/06/06 09:12:28;;;;;;;3.95;2.35;;;22.10;97.20;;;;;;1726613;28;20196;-74
2022/06/06 09:14:00;;;;;;;2.70;2.50;;;22.10;97.20;;;;;;1726498;28;20342;-74
2022/06/06 09:15:13;;;;;;;3.35;2.28;;;22.10;97.20;;;;;;1726297;28;20232;-74
2022/06/06 09:16:23;;;;;;;2.42;2.22;;;22.20;97.20;;;;;;1698859;28;20695;-74
2022/06/06 09:17:53;;;;;;;2.42;2.22;;;22.20;97.20;;;;;;1725009;28;20212;-74
2022/06/06 09:19:21;;;;;;;2.17;1.98;;;22.20;97.20;;;;;;1725948;28;20205;-73
2022/06/06 09:20:41;;;;;;;2.72;2.45;;;22.20;97.20;;;;;;1726383;28;20660;-74
2022/06/06 09:22:01;;;;;;;2.40;2.20;;;22.20;97.20;;;;;;1726357;28;20205;-74
2022/06/06 09:23:12;;;;;;;3.47;2.05;;;22.30;97.20;;;;;;1726452;28;20214;-74
2022/06/06 09:24:35;;;;;;;2.80;2.13;;;22.30;97.20;;;;;;1726388;28;20200;-74
2022/06/06 09:25:43;;;;;;;2.63;2.10;;;22.30;97.20;;;;;;1705365;28;20215;-74
2022/06/06 09:26:45;;;;;;;2.63;2.42;;;22.30;97.20;;;;;;1726152;28;20204;-74
2022/06/06 09:28:26;;;;;;;4.53;2.70;;;22.40;97.20;;;;;;1726165;28;20201;-74
2022/06/06 09:29:46;;;;;;;2.50;2.20;;;22.40;97.20;;;;;;1726384;28;20207;-74
2022/06/06 09:31:15;;;;;;;3.20;2.30;;;22.40;97.20;;;;;;1726449;28;20197;-74
2022/06/06 09:32:45;;;;;;;4.13;2.65;;;22.50;97.20;;;;;;1726264;28;20248;-73
2022/06/06 09:34:06;;;;;;;3.10;2.15;;;22.50;97.20;;;;;;1728940;28;20567;-73
2022/06/06 09:35:24;;;;;;;3.95;2.55;;;22.50;97.20;;;;;;1725611;28;20225;-73
2022/06/06 09:36:23;;;;;;;2.40;2.20;;;22.60;97.20;;;;;;1732201;28;20200;-73
2022/06/06 09:37:33;;;;;;;8.38;3.00;;;22.60;97.20;;;;;;1726937;28;20212;-73
2022/06/06 09:38:46;;;;;;;4.75;2.70;;;22.60;97.20;;;;;;1726215;28;20208;-73
2022/06/06 09:39:56;;;;;;;2.78;2.20;;;22.60;97.20;;;;;;1730769;28;20333;-73
2022/06/06 09:41:18;;;;;;;3.50;2.50;;;22.50;97.20;;;;;;1728137;28;20696;-74
2022/06/06 09:42:37;;;;;;;3.50;2.50;;;22.50;97.20;;;;;;1726275;28;20590;-73
2022/06/06 09:43:49;;;;;;;2.30;2.10;;;22.50;97.20;;;;;;1726199;28;20204;-74
2022/06/06 09:45:08;;;;;;;2.90;2.70;;;22.50;97.20;;;;;;1726198;28;20291;-73
2022/06/06 09:46:38;;;;;;;3.80;2.75;;;22.50;97.20;;;;;;1726165;28;20303;-73
2022/06/06 09:47:58;;;;;;;2.63;2.25;;;22.50;97.20;;;;;;1711972;28;20578;-73
2022/06/06 09:49:20;;;;;;;2.78;2.50;;;22.50;97.20;;;;;;1724678;28;20197;-73
2022/06/06 09:50:47;;;;;;;3.55;3.20;;;22.50;97.20;;;;;;1726159;28;20205;-73
2022/06/06 09:52:32;;;;;;;2.80;2.60;;;22.50;97.20;;;;;;1726131;28;20201;-73
2022/06/06 09:59:01;;;;;;;3.50;3.00;;;22.50;97.20;;;;;;1714373;28;20215;-73
2022/06/06 10:00:11;;;;;;;3.92;2.47;;;22.50;97.20;;;;;;1723573;28;20184;-73
2022/06/06 10:01:19;;;;;;;5.68;2.60;;;22.40;97.20;;;;;;1725721;28;20448;-73
2022/06/06 10:02:40;;;;;;;3.45;2.20;;;22.50;97.20;;;;;;1726141;28;20568;-72
2022/06/06 10:03:55;;;;;;;2.47;2.15;;;22.50;97.20;;;;;;1726184;28;20204;-73
2022/06/06 10:05:22;;;;;;;2.22;2.00;;;22.50;97.20;;;;;;1726119;28;20227;-73
2022/06/06 10:07:05;;;;;;;2.25;2.10;;;22.60;97.20;;;;;;1726207;28;20587;-72
2022/06/06 10:08:43;;;;;;;4.30;2.30;;;22.60;97.20;;;;;;1726012;28;20212;-73
2022/06/06 10:09:53;;;;;;;3.75;2.22;;;22.70;97.20;;;;;;1726093;28;20205;-72
2022/06/06 10:11:23;;;;;;;2.47;2.15;;;22.80;97.20;;;;;;1726133;28;20661;-72
2022/06/06 10:12:43;;;;;;;2.95;2.33;;;22.80;97.20;;;;;;1726043;28;20588;-72
2022/06/06 10:13:50;;;;;;;2.40;2.20;;;22.80;97.20;;;;;;1726114;28;20209;-72
2022/06/06 10:14:56;;;;;;;2.00;1.90;;;22.90;97.20;;;;;;1725734;28;20641;-72
2022/06/06 10:16:07;;;;;;;2.80;1.85;;;22.90;97.20;;;;;;1725970;28;20617;-73
2022/06/06 10:17:23;;;;;;;2.40;2.10;;;22.90;97.20;;;;;;1725930;28;20739;-72
2022/06/06 10:18:55;;;;;;;2.28;2.08;;;22.90;97.20;;;;;;1726085;28;20201;-72
2022/06/06 10:20:16;;;;;;;5.53;2.40;;;22.90;97.20;;;;;;1705151;29;20206;-72
2022/06/06 10:21:39;;;;;;;2.45;2.25;;;22.90;97.20;;;;;;1720405;28;20283;-72
2022/06/06 10:22:59;;;;;;;2.63;2.20;;;22.90;97.20;;;;;;1727012;28;20200;-71
2022/06/06 10:24:04;;;;;;;4.28;1.95;;;23.00;97.20;;;;;;1722084;28;20211;-72
2022/06/06 10:25:34;;;;;;;3.10;2.05;;;23.00;97.20;;;;;;1727189;28;20722;-72
2022/06/06 10:26:50;;;;;;;2.33;2.17;;;23.00;97.20;;;;;;1717966;28;20612;-71
2022/06/06 10:28:10;;;;;;;3.30;2.15;;;23.00;97.20;;;;;;1724573;28;20660;-72
2022/06/06 10:29:16;;;;;;;5.40;2.40;;;23.00;97.20;;;;;;1727025;28;20233;-71
2022/06/06 10:30:17;;;;;;;3.55;2.13;;;23.00;97.20;;;;;;1727185;28;20281;-72
2022/06/06 10:31:20;;;;;;;5.10;2.10;;;23.00;97.20;;;;;;1727171;28;20578;-72
2022/06/06 10:32:27;;;;;;;3.25;2.20;;;23.00;97.20;;;;;;1727214;28;20228;-71
2022/06/06 10:33:40;;;;;;;3.53;2.67;;;23.00;97.20;;;;;;1727333;28;20556;-71
2022/06/06 10:34:58;;;;;;;2.60;2.40;;;23.00;97.20;;;;;;1727190;28;20236;-71
2022/06/06 10:36:21;;;;;;;2.55;2.35;;;23.00;97.20;;;;;;1727115;28;20204;-72
2022/06/06 10:37:40;;;;;;;3.20;2.40;;;23.00;97.20;;;;;;1726939;28;20211;-71
2022/06/06 10:39:01;;;;;;;5.53;3.55;;;23.00;97.20;;;;;;1727080;28;20204;-72
2022/06/06 10:40:11;;;;;;;2.55;2.35;;;23.00;97.20;;;;;;1714457;28;20205;-71
2022/06/06 10:41:16;;;;;;;2.75;2.30;;;23.10;97.20;;;;;;1727207;28;20201;-72
2022/06/06 10:42:27;;;;;;;6.43;2.63;;;23.10;97.20;;;;;;1727143;28;20224;-72
2022/06/06 10:43:39;;;;;;;2.50;2.30;;;23.10;97.20;;;;;;1727122;28;20197;-71
2022/06/06 10:45:06;;;;;;;2.95;2.10;;;23.20;97.20;;;;;;1727064;28;20232;-71
2022/06/06 10:46:01;;;;;;;2.65;1.95;;;23.20;97.20;;;;;;1727214;28;20330;-70
2022/06/06 10:47:02;;;;;;;2.30;2.10;;;23.20;97.20;;;;;;1726913;28;20201;-71
2022/06/06 10:48:17;;;;;;;2.55;2.00;;;23.20;97.20;;;;;;1727040;28;20201;-71
2022/06/06 10:49:21;;;;;;;3.20;2.15;;;23.20;97.20;;;;;;1726766;28;20251;-71
2022/06/06 10:50:18;;;;;;;3.65;2.10;;;23.20;97.20;;;;;;1727009;28;20266;-70
2022/06/06 10:51:54;;;;;;;2.20;2.00;;;23.20;97.20;;;;;;1727148;28;20208;-71
2022/06/06 10:53:25;;;;;;;3.40;2.13;;;23.20;97.20;;;;;;1727145;28;20588;-71
2022/06/06 10:55:07;;;;;;;2.80;2.20;;;23.30;97.20;;;;;;1726982;28;20209;-71
2022/06/06 10:56:42;;;;;;;2.20;2.00;;;23.30;97.20;;;;;;1727178;28;20215;-71
2022/06/06 10:58:06;;;;;;;2.10;2.00;;;23.40;97.20;;;;;;1727173;28;20607;-71
2022/06/06 10:59:39;;;;;;;2.75;2.05;;;23.40;97.20;;;;;;1727231;28;20205;-71
2022/06/06 11:00:49;;;;;;;1.77;1.63;;;23.50;97.20;;;;;;1726976;28;20288;-71
2022/06/06 11:02:14;;;;;;;1.80;1.70;;;23.50;97.20;;;;;;1727075;28;20207;-71
2022/06/06 11:03:30;;;;;;;3.38;2.20;;;23.50;97.20;;;;;;1726773;28;20208;-71
2022/06/06 11:05:00;;;;;;;1.80;1.70;;;23.50;97.20;;;;;;1727012;28;20227;-71
2022/06/06 11:06:27;;;;;;;2.50;2.30;;;23.50;97.20;;;;;;1727005;28;20222;-71
2022/06/06 11:07:52;;;;;;;8.98;2.47;;;23.60;97.20;;;;;;1705855;29;20217;-71
2022/06/06 11:09:03;;;;;;;2.33;2.03;;;23.60;97.20;;;;;;1707329;28;20342;-71